Time;durP1;ratioP1;P1;durP2;ratioP2;P2;SDS_P1;SDS_P2;PMS_P1;PMS_P2;Temp;Humidity;BMP_temperature;BMP_pressure;BME280_temperature;BME280_humidity;BME280_pressure;Samples;Min_cycle;Max_cycle;Signal;HPM_P1;HPM_P2
2022/02/05 00:00:33;;;;;;;54.20;21.38;;;;;;;-1.17;58.93;94003.97;5064795;28;20082;-74
2022/02/05 00:05:39;;;;;;;57.55;22.83;;;;;;;-1.23;58.66;94002.31;5065111;28;20021;-74
2022/02/05 00:13:39;;;;;;;65.00;20.67;;;;;;;-1.31;59.17;94006.09;5064157;28;19920;-74
2022/02/05 00:38:22;;;;;;;51.65;20.00;;;;;;;-1.34;59.30;94014.44;5063896;28;20035;-74
2022/02/05 00:40:59;;;;;;;62.78;20.00;;;;;;;-1.34;59.44;94011.00;5064040;28;20029;-76
2022/02/05 00:43:26;;;;;;;45.03;18.45;;;;;;;-1.34;59.64;94021.44;5061484;28;20078;-76
2022/02/05 00:45:56;;;;;;;45.45;19.42;;;;;;;-1.32;59.51;94014.16;5063647;28;20024;-76
2022/02/05 00:48:22;;;;;;;45.92;18.40;;;;;;;-1.29;59.38;94009.28;5063774;28;20047;-76
2022/02/05 00:50:56;;;;;;;45.88;21.30;;;;;;;-1.31;59.20;94007.94;5063815;28;20025;-75
2022/02/05 00:53:32;;;;;;;49.95;20.85;;;;;;;-1.39;59.34;94006.47;5063471;28;20032;-75
2022/02/05 00:56:25;;;;;;;54.08;19.70;;;;;;;-1.34;58.72;94008.38;5063568;28;20029;-75
2022/02/05 00:58:43;;;;;;;57.55;18.88;;;;;;;-1.36;59.18;93998.19;5063199;28;20024;-75
2022/02/05 01:01:10;;;;;;;65.25;24.05;;;;;;;-1.37;59.18;93993.97;5063430;28;20096;-76
2022/02/05 01:03:37;;;;;;;83.85;26.90;;;;;;;-1.34;59.14;93997.91;5063178;28;20025;-74
2022/02/05 01:06:03;;;;;;;77.63;27.92;;;;;;;-1.32;59.18;93994.06;5063512;28;20043;-76
2022/02/05 01:08:31;;;;;;;78.93;26.10;;;;;;;-1.45;59.17;93994.34;5063282;28;20029;-75
2022/02/05 01:10:57;;;;;;;65.85;22.50;;;;;;;-1.44;59.14;93996.72;5062992;28;20228;-75
2022/02/05 01:13:28;;;;;;;58.20;23.13;;;;;;;-1.44;59.32;93994.13;5063084;28;20318;-75
2022/02/05 01:18:24;;;;;;;49.88;18.13;;;;;;;-1.44;59.13;93980.25;5063189;28;20029;-74
2022/02/05 01:23:24;;;;;;;33.67;15.10;;;;;;;-1.47;59.09;93984.09;5063012;28;20021;-75
2022/02/05 01:25:58;;;;;;;36.88;14.38;;;;;;;-1.48;59.45;93979.13;5063057;28;20202;-75
2022/02/05 01:28:29;;;;;;;42.72;16.40;;;;;;;-1.47;59.17;93976.28;5062891;28;20340;-75
2022/02/05 01:30:56;;;;;;;39.45;17.33;;;;;;;-1.46;58.99;93977.09;5062900;28;20311;-75
2022/02/05 01:52:48;;;;;;;50.15;18.25;;;;;;;-1.54;60.37;93970.41;5062649;28;20230;-76
2022/02/05 01:55:34;;;;;;;41.15;17.23;;;;;;;-1.56;60.35;93963.84;5061938;28;20031;-75
2022/02/05 01:58:17;;;;;;;44.22;17.52;;;;;;;-1.53;60.09;93965.97;5062466;28;20243;-75
2022/02/05 02:32:36;;;;;;;59.60;23.70;;;;;;;-1.77;60.71;93967.88;5062049;28;20270;-75
2022/02/05 02:35:07;;;;;;;65.35;24.67;;;;;;;-1.76;60.83;93967.66;5062165;28;20024;-75
2022/02/05 02:37:43;;;;;;;55.35;22.27;;;;;;;-1.73;60.09;93961.16;5061927;28;20286;-75
2022/02/05 02:40:25;;;;;;;54.92;21.88;;;;;;;-1.73;59.95;93975.03;5062220;28;20315;-75
2022/02/05 02:42:57;;;;;;;57.85;22.77;;;;;;;-1.75;59.99;93969.25;5061107;28;20037;-75
2022/02/05 02:45:22;;;;;;;52.38;18.60;;;;;;;-1.76;60.05;93972.09;5062029;28;20052;-74
2022/02/05 02:47:48;;;;;;;48.63;18.52;;;;;;;-1.74;60.22;93970.81;5061935;28;20040;-74
2022/02/05 02:58:16;;;;;;;43.78;16.33;;;;;;;-1.85;60.63;93977.69;5061747;28;20082;-74
2022/02/05 03:00:42;;;;;;;41.00;15.00;;;;;;;-1.86;60.71;93983.94;5061828;28;20032;-75
2022/02/05 03:03:07;;;;;;;44.85;15.85;;;;;;;-1.83;60.52;93977.47;5061944;28;20488;-75
2022/02/05 03:05:33;;;;;;;40.40;15.45;;;;;;;-1.85;60.77;93972.47;5061949;28;20032;-75
2022/02/05 03:07:58;;;;;;;46.22;16.55;;;;;;;-1.79;60.58;93989.03;5065763;28;20039;-76
2022/02/05 03:10:24;;;;;;;38.10;15.32;;;;;;;-1.80;60.70;93987.44;5065899;28;20087;-76
2022/02/05 03:12:49;;;;;;;40.55;16.20;;;;;;;-1.77;60.44;93996.63;5065397;28;20068;-76
2022/02/05 03:15:19;;;;;;;49.45;18.80;;;;;;;-1.81;60.02;93985.88;5065466;28;20108;-76
2022/02/05 03:18:02;;;;;;;48.83;18.50;;;;;;;-1.79;60.29;93989.03;5065280;28;20105;-75
2022/02/05 03:20:31;;;;;;;44.80;20.10;;;;;;;-1.80;60.48;93984.81;5065535;28;20226;-75
2022/02/05 03:23:01;;;;;;;52.08;20.25;;;;;;;-1.74;60.14;93985.72;5066069;28;20254;-76
2022/02/05 03:25:31;;;;;;;57.15;22.77;;;;;;;-1.76;60.66;93991.19;5065161;28;20020;-76
2022/02/05 03:27:58;;;;;;;44.67;18.98;;;;;;;-1.73;60.24;93990.72;5065409;28;20234;-77
2022/02/05 03:30:24;;;;;;;47.08;18.90;;;;;;;-1.76;60.21;93975.50;5065316;28;20028;-77
2022/02/05 03:32:50;;;;;;;44.63;19.33;;;;;;;-1.72;60.35;93976.63;5065194;28;20066;-77
2022/02/05 03:35:15;;;;;;;44.45;18.10;;;;;;;-1.70;60.22;93990.25;5064922;28;20044;-76
2022/02/05 03:37:41;;;;;;;33.40;15.90;;;;;;;-1.69;59.78;93967.50;5065136;28;20344;-76
2022/02/05 03:40:09;;;;;;;38.53;16.10;;;;;;;-1.72;60.27;93978.44;5065225;28;20032;-76
2022/02/05 03:42:35;;;;;;;28.80;13.52;;;;;;;-1.80;60.18;93982.22;5065097;28;20044;-76
2022/02/05 03:45:01;;;;;;;31.83;13.65;;;;;;;-1.79;60.49;93983.00;5065040;28;20040;-76
2022/02/05 03:47:31;;;;;;;34.85;14.77;;;;;;;-1.77;60.36;93991.41;5064741;28;20016;-76
2022/02/05 03:49:56;;;;;;;32.50;14.98;;;;;;;-1.82;60.66;93986.88;5064860;28;20021;-76
2022/02/05 03:52:22;;;;;;;38.65;15.15;;;;;;;-1.79;60.20;94002.09;5064879;28;20208;-76
2022/02/05 03:54:47;;;;;;;53.47;16.55;;;;;;;-1.79;60.02;93998.69;5064786;28;20067;-76
2022/02/05 03:57:13;;;;;;;42.97;16.38;;;;;;;-1.79;60.04;94003.91;5063517;28;20056;-76
2022/02/05 03:59:39;;;;;;;40.05;17.48;;;;;;;-1.77;60.13;94007.06;5063652;28;20044;-75
2022/02/05 04:02:04;;;;;;;40.42;15.75;;;;;;;-1.78;60.14;93998.44;5064730;28;20142;-75
2022/02/05 04:04:30;;;;;;;45.88;17.75;;;;;;;-1.81;59.90;93998.94;5064641;28;20025;-75
2022/02/05 04:06:55;;;;;;;42.35;17.70;;;;;;;-1.87;59.97;93992.03;5064654;28;20024;-75
2022/02/05 04:09:26;;;;;;;42.75;17.55;;;;;;;-1.85;59.99;93990.75;5064667;28;20052;-75
2022/02/05 04:17:20;;;;;;;40.38;15.48;;;;;;;-1.88;60.30;94001.66;5064108;28;20031;-75
2022/02/05 04:19:45;;;;;;;30.55;13.40;;;;;;;-1.85;60.81;94003.81;5064432;28;20044;-75
2022/02/05 04:22:11;;;;;;;29.15;13.00;;;;;;;-1.79;60.39;94003.91;5064586;28;20032;-75
2022/02/05 04:24:36;;;;;;;26.90;14.02;;;;;;;-1.83;60.68;94007.00;5064272;28;20025;-75
2022/02/05 04:27:02;;;;;;;42.55;14.52;;;;;;;-1.79;60.22;94011.75;5064028;28;20061;-75
2022/02/05 04:29:27;;;;;;;32.92;15.68;;;;;;;-1.82;60.43;94005.97;5064380;28;20059;-75
2022/02/05 04:31:53;;;;;;;27.58;12.45;;;;;;;-1.81;60.50;93998.94;5064083;28;20025;-75
2022/02/05 04:34:18;;;;;;;29.27;12.32;;;;;;;-1.90;60.68;93998.50;5064015;28;20078;-75
2022/02/05 04:36:44;;;;;;;35.35;13.80;;;;;;;-1.92;61.08;94003.16;5064091;28;20045;-75
2022/02/05 04:39:13;;;;;;;32.08;14.07;;;;;;;-1.92;61.15;94016.22;5063896;28;20098;-75
2022/02/05 04:42:35;;;;;;;30.02;13.18;;;;;;;-1.90;61.07;94005.53;5064186;28;20223;-75
2022/02/05 04:50:27;;;;;;;35.47;15.20;;;;;;;-1.86;61.38;94009.28;5063818;28;20223;-74
2022/02/05 04:57:58;;;;;;;46.50;22.80;;;;;;;-1.86;61.92;94012.66;5027009;28;20050;-75
2022/02/05 05:06:12;;;;;;;44.95;19.95;;;;;;;-1.88;61.95;94012.09;5063496;28;20210;-75
2022/02/05 05:21:52;;;;;;;60.15;25.10;;;;;;;-1.87;62.22;94018.16;5063227;28;20028;-75
2022/02/05 05:24:17;;;;;;;47.92;20.40;;;;;;;-1.90;62.42;94010.75;5063039;28;20341;-75
2022/02/05 05:26:43;;;;;;;47.78;21.00;;;;;;;-1.96;62.38;94009.06;5063371;28;20084;-75
2022/02/05 05:29:08;;;;;;;49.63;22.42;;;;;;;-1.93;62.08;94008.63;5062432;28;20080;-74
2022/02/05 05:31:33;;;;;;;51.13;21.30;;;;;;;-1.93;62.05;94014.63;5062861;28;20035;-75
2022/02/05 05:33:59;;;;;;;56.50;22.65;;;;;;;-1.92;62.45;94028.50;5062787;28;20028;-75
2022/02/05 05:36:29;;;;;;;56.20;23.40;;;;;;;-1.92;62.13;94012.81;5062500;28;20045;-76
2022/02/05 05:39:00;;;;;;;42.10;20.55;;;;;;;-1.93;62.21;94004.19;5062843;28;20036;-79
2022/02/05 05:41:26;;;;;;;46.00;19.38;;;;;;;-1.88;61.97;94013.94;5062737;28;20103;-75
2022/02/05 05:46:42;;;;;;;50.85;19.48;;;;;;;-1.93;62.07;94014.63;5062618;28;21001;-75
2022/02/05 05:49:17;;;;;;;36.78;16.10;;;;;;;-1.87;61.71;94023.38;5062446;28;20028;-75
2022/02/05 05:51:48;;;;;;;40.47;17.00;;;;;;;-1.88;61.65;94019.94;5062640;28;20262;-75
2022/02/05 05:54:17;;;;;;;38.23;17.20;;;;;;;-1.87;61.61;94034.63;5062824;28;20271;-74
2022/02/05 05:56:44;;;;;;;33.35;13.45;;;;;;;-1.80;61.44;94031.06;5062524;28;20044;-74
2022/02/05 05:59:10;;;;;;;35.25;14.70;;;;;;;-1.76;61.00;94030.38;5062689;28;20322;-75
2022/02/05 06:01:39;;;;;;;41.75;15.18;;;;;;;-1.74;60.66;94036.16;5062690;28;20078;-75
2022/02/05 06:04:05;;;;;;;33.83;15.88;;;;;;;-1.73;60.90;94029.09;5062537;28;20032;-75
2022/02/05 06:06:30;;;;;;;36.47;16.52;;;;;;;-1.70;60.83;94023.44;5062314;28;20223;-74
2022/02/05 06:08:56;;;;;;;43.08;16.42;;;;;;;-1.67;61.04;94030.78;5062472;28;20078;-73
2022/02/05 06:11:21;;;;;;;38.83;15.73;;;;;;;-1.60;60.76;94036.69;5062077;28;20227;-74
2022/02/05 06:13:47;;;;;;;48.08;17.70;;;;;;;-1.54;59.99;94037.59;5062295;28;20082;-76
2022/02/05 06:16:16;;;;;;;49.10;18.10;;;;;;;-1.48;59.79;94034.03;5062475;28;20035;-75
2022/02/05 06:18:42;;;;;;;40.15;17.50;;;;;;;-1.43;60.34;94047.97;5062396;28;20097;-76
2022/02/05 06:21:08;;;;;;;38.40;14.55;;;;;;;-1.38;59.99;94042.06;5062029;28;20027;-74
2022/02/05 06:23:33;;;;;;;34.83;14.40;;;;;;;-1.33;59.74;94033.50;5062300;28;20074;-75
2022/02/05 06:25:59;;;;;;;28.77;12.45;;;;;;;-1.24;59.68;94050.44;5062115;28;20022;-75
2022/02/05 06:28:24;;;;;;;35.90;13.18;;;;;;;-1.21;59.75;94042.09;5061835;28;20067;-75
2022/02/05 06:30:50;;;;;;;34.83;14.32;;;;;;;-1.10;59.81;94049.09;5061888;28;20041;-75
2022/02/05 06:33:16;;;;;;;30.63;15.38;;;;;;;-1.04;59.32;94063.03;5061868;28;20044;-75
2022/02/05 06:35:42;;;;;;;45.15;17.27;;;;;;;-0.99;59.79;94064.97;5062258;28;20031;-75
2022/02/05 06:38:10;;;;;;;43.60;20.70;;;;;;;-0.94;59.24;94059.81;5061725;28;20025;-75
2022/02/05 06:40:35;;;;;;;45.97;21.27;;;;;;;-0.90;59.18;94053.09;5063950;28;20037;-76
2022/02/05 06:43:01;;;;;;;55.42;22.58;;;;;;;-0.87;59.33;94068.31;5066159;28;20215;-75
2022/02/05 06:45:26;;;;;;;58.28;24.58;;;;;;;-0.88;59.50;94066.72;5065774;28;20096;-75
2022/02/05 06:47:52;;;;;;;58.88;24.70;;;;;;;-0.85;59.79;94061.81;5066071;28;20040;-75
2022/02/05 06:50:17;;;;;;;47.75;23.92;;;;;;;-0.82;59.91;94060.53;5064931;28;20036;-75
2022/02/05 06:52:44;;;;;;;62.97;26.75;;;;;;;-0.72;59.69;94055.47;5066118;28;20028;-74
2022/02/05 06:55:12;;;;;;;53.75;25.40;;;;;;;-0.71;59.82;94061.50;5064870;28;20025;-74
2022/02/05 06:57:38;;;;;;;57.63;25.45;;;;;;;-0.68;59.48;94061.81;5065848;28;20047;-74
2022/02/05 07:00:07;;;;;;;67.15;27.15;;;;;;;-0.70;59.95;94058.66;5066014;28;20306;-75
2022/02/05 07:02:34;;;;;;;56.13;25.77;;;;;;;-0.72;59.78;94057.31;5065914;28;20099;-75
2022/02/05 07:04:59;;;;;;;62.78;27.95;;;;;;;-0.73;59.60;94060.94;5066011;28;20311;-75
2022/02/05 07:07:25;;;;;;;54.85;24.38;;;;;;;-0.77;59.64;94062.44;5065864;28;20059;-75
2022/02/05 07:09:51;;;;;;;60.47;24.48;;;;;;;-0.78;59.80;94058.25;5065776;28;20016;-74
2022/02/05 07:12:16;;;;;;;51.92;23.45;;;;;;;-0.87;59.69;94058.63;5065375;28;20238;-74
2022/02/05 07:14:59;;;;;;;60.47;25.60;;;;;;;-0.84;60.12;94060.78;5065671;28;20036;-74
2022/02/05 07:17:41;;;;;;;53.30;24.05;;;;;;;-0.74;60.41;94060.16;5065422;28;20024;-74
2022/02/05 07:20:28;;;;;;;;;;;;;;;-0.72;60.63;94065.94;5066153;28;20036;-78
2022/02/05 07:30:59;;;;;;;77.00;32.47;;;;;;;-0.37;60.02;94059.66;5065266;28;20032;-73
2022/02/05 07:33:24;;;;;;;68.80;31.77;;;;;;;-0.28;59.75;94063.47;5065307;28;20285;-74
2022/02/05 07:35:50;;;;;;;64.50;28.67;;;;;;;-0.18;59.68;94062.03;5065031;28;20025;-76
2022/02/05 07:38:15;;;;;;;66.57;29.63;;;;;;;-0.10;58.80;94072.91;5065377;28;20223;-78
2022/02/05 07:40:41;;;;;;;77.85;30.52;;;;;;;-0.03;58.32;94077.97;5065325;28;20092;-77
2022/02/05 07:43:06;;;;;;;65.90;28.60;;;;;;;0.02;58.17;94082.47;5064057;28;20197;-75
2022/02/05 07:45:34;;;;;;;67.43;28.85;;;;;;;0.08;57.76;94082.31;5061862;28;20131;-71
2022/02/05 07:48:00;;;;;;;52.10;26.63;;;;;;;0.11;58.02;94081.03;5063760;28;20020;-72
2022/02/05 07:50:25;;;;;;;60.78;28.75;;;;;;;0.12;57.92;94080.81;5065108;28;20310;-72
2022/02/05 07:52:50;;;;;;;63.50;29.70;;;;;;;0.20;57.45;94092.69;5064296;28;20033;-72
2022/02/05 07:55:16;;;;;;;75.15;31.70;;;;;;;0.13;57.45;94086.84;5064974;28;20025;-71
2022/02/05 07:57:41;;;;;;;74.00;30.52;;;;;;;0.11;57.63;94089.69;5064218;28;20254;-72
2022/02/05 08:00:08;;;;;;;67.32;31.67;;;;;;;0.17;57.64;94093.97;5064797;28;20226;-71
2022/02/05 08:02:33;;;;;;;72.75;32.55;;;;;;;0.09;57.71;94091.75;5064775;28;20223;-71
2022/02/05 08:04:59;;;;;;;79.43;33.20;;;;;;;0.09;58.12;94086.50;5064799;28;20027;-74
2022/02/05 08:07:24;;;;;;;75.43;34.88;;;;;;;0.18;58.58;94084.25;5064958;28;20051;-75
2022/02/05 08:10:00;;;;;;;73.70;32.65;;;;;;;0.32;57.75;94085.50;5064833;28;20039;-74
2022/02/05 08:12:27;;;;;;;72.18;33.13;;;;;;;0.46;57.47;94085.94;5064798;28;20356;-80
2022/02/05 08:14:55;;;;;;;72.95;34.10;;;;;;;0.58;57.01;94088.44;5064721;28;20024;-80
2022/02/05 08:17:27;;;;;;;79.40;35.10;;;;;;;0.65;57.35;94090.88;5064419;28;20025;-80
2022/02/05 08:19:53;;;;;;;85.80;35.33;;;;;;;0.73;57.41;94086.00;5064872;28;20025;-79
2022/02/05 08:22:19;;;;;;;69.75;32.47;;;;;;;0.85;56.50;94070.09;5064625;28;20078;-79
2022/02/05 08:24:45;;;;;;;66.72;27.52;;;;;;;1.05;55.57;94068.72;5063400;28;20043;-79
2022/02/05 08:27:11;;;;;;;64.93;25.55;;;;;;;1.16;55.35;94067.75;5064576;28;20049;-79
2022/02/05 08:29:42;;;;;;;52.53;24.00;;;;;;;1.28;54.65;94080.75;5064490;28;20227;-79
2022/02/05 08:32:10;;;;;;;62.83;28.00;;;;;;;1.44;54.38;94077.19;5064529;28;20092;-80
2022/02/05 08:34:36;;;;;;;60.53;28.05;;;;;;;1.54;53.82;94084.38;5064332;28;20025;-79
2022/02/05 08:37:06;;;;;;;62.28;26.70;;;;;;;1.59;54.30;94076.53;5064076;28;20341;-79
2022/02/05 08:39:39;;;;;;;61.45;27.52;;;;;;;1.74;53.88;94075.84;5063129;28;20119;-79
2022/02/05 08:42:05;;;;;;;57.35;25.27;;;;;;;1.88;54.08;94074.38;5063680;28;20083;-79
2022/02/05 08:44:33;;;;;;;59.50;25.33;;;;;;;1.96;53.86;94065.22;5064291;28;20024;-79
2022/02/05 08:46:58;;;;;;;47.17;23.05;;;;;;;2.07;53.02;94072.13;5064070;28;20021;-79
2022/02/05 08:49:28;;;;;;;46.35;22.40;;;;;;;2.15;53.04;94074.25;5062643;28;20028;-79
2022/02/05 08:51:54;;;;;;;47.95;20.30;;;;;;;2.23;52.52;94065.09;5062840;28;20035;-79
2022/02/05 08:54:22;;;;;;;42.60;19.80;;;;;;;2.34;52.26;94076.47;5063415;28;20059;-79
2022/02/05 08:56:48;;;;;;;40.15;18.30;;;;;;;2.43;51.93;94085.47;5063687;28;20035;-79
2022/02/05 08:59:15;;;;;;;41.17;16.27;;;;;;;2.51;51.27;94086.81;5063571;28;20045;-79
2022/02/05 09:02:04;;;;;;;39.25;17.15;;;;;;;2.59;50.78;94087.13;5063648;28;20083;-79
2022/02/05 09:05:03;;;;;;;43.47;16.80;;;;;;;2.66;49.99;94101.88;5062907;28;20025;-79
2022/02/05 09:07:25;;;;;;;43.35;17.13;;;;;;;2.68;48.92;94105.03;5063527;28;20053;-79
2022/02/05 09:10:22;;;;;;;32.75;15.70;;;;;;;2.67;48.72;94095.56;5063731;28;20032;-79
2022/02/05 09:15:33;;;;;;;33.72;15.38;;;;;;;2.60;48.46;94115.00;5063546;28;20048;-79
2022/02/05 09:17:59;;;;;;;41.08;17.55;;;;;;;2.58;48.79;94105.78;5063450;28;20025;-79
2022/02/05 09:20:26;;;;;;;42.97;18.10;;;;;;;2.65;49.20;94093.19;5063408;28;20204;-80
2022/02/05 09:22:53;;;;;;;37.95;18.55;;;;;;;2.69;48.76;94093.47;5063224;28;20032;-81
2022/02/05 09:25:21;;;;;;;51.15;18.25;;;;;;;2.77;48.99;94091.13;5063074;28;20071;-79
2022/02/05 09:27:47;;;;;;;48.00;19.80;;;;;;;2.84;49.33;94090.09;5063046;28;20020;-79
2022/02/05 09:30:14;;;;;;;41.47;19.17;;;;;;;2.87;50.35;94087.75;5063283;28;20226;-79
2022/02/05 09:32:40;;;;;;;46.78;18.83;;;;;;;2.94;49.18;94083.00;5062847;28;20029;-79
2022/02/05 09:35:07;;;;;;;48.10;20.55;;;;;;;3.06;48.48;94092.53;5062990;28;20204;-79
2022/02/05 09:37:33;;;;;;;42.83;19.75;;;;;;;2.99;49.02;94085.66;5061580;28;20315;-79
2022/02/05 09:39:58;;;;;;;57.67;20.98;;;;;;;3.00;49.05;94079.34;5062979;28;20146;-79
2022/02/05 09:42:24;;;;;;;45.10;21.35;;;;;;;3.10;49.03;94075.16;5063012;28;20017;-79
2022/02/05 09:44:50;;;;;;;47.63;21.25;;;;;;;3.20;47.90;94068.06;5063030;28;20096;-79
2022/02/05 09:47:16;;;;;;;47.72;22.67;;;;;;;3.19;47.89;94063.03;5062984;28;20020;-79
2022/02/05 09:49:43;;;;;;;49.63;22.38;;;;;;;3.26;47.88;94073.31;5062450;28;20016;-79
2022/02/05 09:52:19;;;;;;;44.75;22.20;;;;;;;3.25;47.95;94059.38;5062833;28;20032;-79
2022/02/05 09:54:45;;;;;;;54.50;22.83;;;;;;;3.35;48.19;94069.13;5063289;28;20259;-79
2022/02/05 09:57:11;;;;;;;58.28;23.73;;;;;;;3.48;48.12;94052.00;5061540;28;20036;-79
2022/02/05 09:59:46;;;;;;;47.60;22.23;;;;;;;3.60;48.61;94055.16;5062267;28;20056;-80
2022/02/05 10:02:18;;;;;;;41.20;21.63;;;;;;;3.80;49.10;94047.22;5062824;28;20036;-79
2022/02/05 10:04:54;;;;;;;45.58;20.25;;;;;;;3.96;47.84;94047.22;5062826;28;20270;-80
2022/02/05 10:07:20;;;;;;;48.03;20.80;;;;;;;4.00;46.98;94046.41;5062791;28;20032;-79
2022/02/05 10:09:56;;;;;;;50.13;20.48;;;;;;;4.21;47.10;94033.19;5062981;28;20066;-80
2022/02/05 10:12:26;;;;;;;39.00;17.90;;;;;;;4.34;47.39;94040.53;5062743;28;20049;-79
2022/02/05 10:14:55;;;;;;;42.17;17.00;;;;;;;4.48;47.11;94032.03;5062552;28;20020;-79
2022/02/05 10:17:43;;;;;;;36.72;15.90;;;;;;;4.59;45.61;94026.44;5062777;28;20116;-80
2022/02/05 10:20:31;;;;;;;26.67;11.98;;;;;;;4.55;44.99;94030.69;5063583;28;20063;-81
2022/02/05 10:23:09;;;;;;;38.30;13.45;;;;;;;4.70;45.07;94029.84;5062421;28;20090;-80
2022/02/05 10:25:35;;;;;;;33.03;13.63;;;;;;;4.83;44.95;94039.81;5062594;28;20052;-80
2022/02/05 10:28:00;;;;;;;29.58;13.70;;;;;;;5.02;44.75;94034.66;5062049;28;20032;-80
2022/02/05 10:30:30;;;;;;;35.40;15.25;;;;;;;5.21;44.34;94036.66;5062582;28;20021;-80
2022/02/05 10:33:10;;;;;;;32.33;14.80;;;;;;;5.38;43.75;94029.16;5062527;28;20017;-80
2022/02/05 10:43:58;;;;;;;42.95;19.20;;;;;;;5.93;42.70;94028.97;5062804;28;20075;-79
2022/02/05 10:46:42;;;;;;;48.05;21.05;;;;;;;6.09;41.70;94029.63;5062251;28;20021;-79
2022/02/05 10:49:11;;;;;;;44.42;18.73;;;;;;;6.02;41.87;94024.69;5062384;28;20318;-79
2022/02/05 10:51:47;;;;;;;49.63;20.20;;;;;;;5.73;42.05;94024.63;5062191;28;20024;-79
2022/02/05 10:54:31;;;;;;;40.22;20.10;;;;;;;5.87;42.67;94037.22;5062180;28;20024;-78
2022/02/05 10:57:22;;;;;;;52.03;22.30;;;;;;;6.02;41.74;94026.50;5062061;28;20033;-79
2022/02/05 11:08:01;;;;;;;59.78;26.80;;;;;;;5.98;41.85;94006.97;5062420;28;20020;-79
2022/02/05 11:13:23;;;;;;;53.58;25.05;;;;;;;6.21;42.47;94014.16;5061861;28;20287;-79
2022/02/05 11:21:18;;;;;;;67.95;32.63;;;;;;;6.66;41.52;93997.25;5062180;28;20067;-79
2022/02/05 11:23:48;;;;;;;64.35;30.90;;;;;;;6.81;40.93;94002.31;5061885;28;20013;-79
2022/02/05 11:26:16;;;;;;;64.88;30.95;;;;;;;7.00;40.76;94002.31;5061777;28;20211;-79
2022/02/05 11:28:54;;;;;;;71.85;33.50;;;;;;;7.16;40.73;94000.25;5064017;28;20027;-79
2022/02/05 11:31:33;;;;;;;68.10;33.47;;;;;;;7.34;40.61;94004.75;5065642;28;20020;-79
2022/02/05 11:34:28;;;;;;;67.13;34.42;;;;;;;7.65;40.15;94001.59;5065378;28;20049;-79
2022/02/05 11:37:02;;;;;;;74.63;36.50;;;;;;;7.90;39.74;94002.28;5065324;28;20029;-80
2022/02/05 11:39:28;;;;;;;62.47;32.72;;;;;;;8.08;38.92;94001.41;5065111;28;20036;-80
2022/02/05 11:41:53;;;;;;;71.22;34.55;;;;;;;8.12;38.17;93998.94;5063856;28;20185;-80
2022/02/05 11:44:25;;;;;;;75.35;34.20;;;;;;;8.20;38.18;93993.75;5065309;28;20098;-78
2022/02/05 11:47:06;;;;;;;75.20;34.13;;;;;;;8.22;39.73;93994.25;5064222;28;20017;-79
2022/02/05 11:49:53;;;;;;;70.55;33.03;;;;;;;8.34;39.28;93985.78;5064901;28;20032;-79
2022/02/05 11:52:37;;;;;;;71.03;33.50;;;;;;;8.42;39.09;93984.31;5065118;28;20088;-80
2022/02/05 11:55:07;;;;;;;68.00;33.00;;;;;;;8.46;38.34;93977.34;5065000;28;20020;-80
2022/02/05 11:57:42;;;;;;;78.60;37.28;;;;;;;8.61;38.46;93981.59;5064946;28;20177;-80
2022/02/05 12:00:10;;;;;;;67.80;33.13;;;;;;;8.71;38.96;93972.59;5064903;28;20043;-80
2022/02/05 12:02:45;;;;;;;72.47;34.20;;;;;;;8.91;38.54;93974.81;5064968;28;20032;-80
2022/02/05 12:05:11;;;;;;;73.13;31.80;;;;;;;9.07;38.36;93974.47;5064877;28;20017;-80
2022/02/05 12:07:59;;;;;;;63.53;29.73;;;;;;;9.19;37.92;93969.41;5064692;28;20044;-80
2022/02/05 12:10:41;;;;;;;54.50;27.15;;;;;;;9.37;37.46;93970.34;5064699;28;20082;-80
2022/02/05 12:13:22;;;;;;;53.90;25.15;;;;;;;9.38;36.81;93970.06;5063413;28;20053;-80
2022/02/05 12:16:09;;;;;;;47.03;22.00;;;;;;;9.22;37.45;93971.50;5064425;28;20033;-80
2022/02/05 12:19:11;;;;;;;40.83;18.95;;;;;;;9.25;37.64;93965.56;5064321;28;20025;-81
2022/02/05 12:21:55;;;;;;;51.53;18.55;;;;;;;9.26;38.11;93964.50;5063101;28;20037;-80
2022/02/05 12:24:43;;;;;;;36.65;15.75;;;;;;;9.28;37.98;93961.50;5064470;28;20222;-79
2022/02/05 12:27:31;;;;;;;34.13;15.95;;;;;;;9.29;37.79;93963.88;5064359;28;20250;-80
2022/02/05 12:30:38;;;;;;;30.95;15.88;;;;;;;9.23;37.96;93957.88;5064306;28;20025;-79
2022/02/05 12:33:05;;;;;;;19.92;10.45;;;;;;;9.16;37.85;93962.84;5064299;28;20088;-80
2022/02/05 12:35:33;;;;;;;21.52;8.48;;;;;;;9.15;38.22;93960.47;5064338;28;20017;-81
2022/02/05 12:38:01;;;;;;;24.42;8.48;;;;;;;9.22;38.20;93963.50;5064099;28;20021;-80
2022/02/05 12:40:27;;;;;;;9.00;3.83;;;;;;;9.13;37.53;93965.31;5064302;28;20104;-80
2022/02/05 12:42:54;;;;;;;8.15;3.40;;;;;;;8.99;38.15;93966.13;5064059;28;20020;-78
2022/02/05 12:45:25;;;;;;;17.90;3.80;;;;;;;8.99;38.70;93963.47;5062989;28;20017;-81
2022/02/05 12:47:51;;;;;;;15.52;3.53;;;;;;;8.96;38.31;93969.41;5063132;28;20024;-81
2022/02/05 12:50:24;;;;;;;11.10;3.00;;;;;;;8.88;38.24;93959.47;5064088;28;20223;-81
2022/02/05 12:52:51;;;;;;;10.90;3.35;;;;;;;8.84;38.31;93961.16;5063982;28;20329;-81
2022/02/05 12:55:25;;;;;;;10.90;4.25;;;;;;;8.84;38.65;93967.25;5063852;28;20365;-81
2022/02/05 12:58:01;;;;;;;8.32;3.42;;;;;;;8.86;38.49;93959.00;5063726;28;20032;-81
2022/02/05 13:00:27;;;;;;;9.63;3.22;;;;;;;8.88;39.16;93951.50;5063363;28;20041;-80
2022/02/05 13:02:52;;;;;;;9.45;3.38;;;;;;;8.84;38.64;93955.84;5063846;28;20021;-81
2022/02/05 13:05:19;;;;;;;10.60;3.63;;;;;;;8.83;39.02;93957.72;5063987;28;20020;-81
2022/02/05 13:07:47;;;;;;;11.82;3.35;;;;;;;8.88;40.01;93967.44;5063620;28;20028;-81
2022/02/05 13:10:15;;;;;;;9.57;3.17;;;;;;;8.98;38.83;93956.59;5063481;28;20033;-81
2022/02/05 13:12:43;;;;;;;7.45;3.00;;;;;;;9.00;38.59;93959.72;5063360;28;20337;-81
2022/02/05 13:15:25;;;;;;;10.63;2.65;;;;;;;8.90;38.36;93961.84;5063555;28;20074;-80
2022/02/05 13:41:09;;;;;;;11.38;3.55;;;;;;;8.87;39.81;93971.19;5063113;28;20028;-80
2022/02/05 13:43:42;;;;;;;6.43;3.00;;;;;;;8.71;40.32;93978.72;5062980;28;20083;-79
2022/02/05 13:46:17;;;;;;;5.05;2.40;;;;;;;8.40;41.59;93989.13;5062894;28;20196;-79
2022/02/05 13:48:45;;;;;;;12.65;2.83;;;;;;;8.22;42.21;93993.44;5062717;28;20102;-78
2022/02/05 13:51:10;;;;;;;6.35;2.22;;;;;;;7.98;43.08;93990.97;5062463;28;20025;-80
2022/02/05 13:53:55;;;;;;;5.68;2.10;;;;;;;7.90;44.13;93997.75;5063032;28;20092;-80
2022/02/05 13:56:21;;;;;;;8.75;2.28;;;;;;;7.88;44.63;93985.84;5062727;28;20032;-80
2022/02/05 13:58:47;;;;;;;7.63;2.38;;;;;;;7.88;44.62;93981.31;5062592;28;20311;-80
2022/02/05 14:01:30;;;;;;;5.50;2.78;;;;;;;8.01;44.46;93993.03;5062779;28;20082;-80
2022/02/05 14:03:56;;;;;;;9.65;2.97;;;;;;;8.06;44.40;93987.66;5062871;28;20041;-80
2022/02/05 14:06:21;;;;;;;7.00;3.40;;;;;;;8.14;43.88;93996.78;5062667;28;20021;-80
2022/02/05 14:08:52;;;;;;;8.13;2.88;;;;;;;8.06;43.94;93997.47;5062511;28;20043;-80
2022/02/05 14:11:31;;;;;;;15.15;2.92;;;;;;;8.01;43.89;93993.81;5062502;28;20048;-80
2022/02/05 14:13:58;;;;;;;14.73;3.72;;;;;;;7.99;43.79;93985.34;5062437;28;20021;-80
2022/02/05 14:16:32;;;;;;;7.05;3.08;;;;;;;7.86;43.95;93980.84;5062704;28;20048;-81
2022/02/05 14:19:00;;;;;;;10.23;3.50;;;;;;;7.84;44.20;93977.69;5062444;28;20087;-81
2022/02/05 14:21:47;;;;;;;10.88;3.17;;;;;;;7.71;44.65;93981.88;5062464;28;20028;-81
2022/02/05 14:24:26;;;;;;;6.28;2.55;;;;;;;7.68;44.28;93971.84;5062144;28;20126;-81
2022/02/05 14:27:05;;;;;;;10.10;2.75;;;;;;;7.65;44.09;93969.75;5062429;28;20029;-80
2022/02/05 14:29:39;;;;;;;10.43;3.95;;;;;;;7.62;44.48;93960.53;5062199;28;20249;-81
2022/02/05 14:32:20;;;;;;;11.98;3.50;;;;;;;7.55;44.68;93959.31;5062293;28;20024;-80
2022/02/05 14:35:02;;;;;;;10.43;3.55;;;;;;;7.52;44.26;93954.63;5061150;28;20027;-80
2022/02/05 14:43:09;;;;;;;12.30;3.92;;;;;;;7.55;45.19;93967.28;5061489;28;20211;-80
2022/02/05 14:45:35;;;;;;;10.55;3.97;;;;;;;7.55;45.17;93981.34;5060942;28;20082;-80
2022/02/05 14:48:00;;;;;;;9.68;3.40;;;;;;;7.41;45.37;93976.00;5062221;28;20085;-81
2022/02/05 14:50:26;;;;;;;7.80;3.08;;;;;;;7.47;45.12;93984.69;5062178;28;20044;-80
2022/02/05 14:52:52;;;;;;;10.80;3.08;;;;;;;7.41;45.48;93981.31;5062126;28;20020;-81
2022/02/05 14:55:23;;;;;;;11.52;2.60;;;;;;;7.26;45.87;93983.41;5062141;28;20086;-80